KCLW/CLW METAR and TAF weather

Enter ICAO airport designator
Station Type Date Time Source
KCLW METAR 2018/07/21 22:35 UTC NOAA

KCLW 212235Z AUTO 04003KT 10SM CLR 29/22 A2991 RMK AO2


Station Type Date Time Source
KCLW Decoded METAR 2018/07/21 22:35 UTC NOAA

Station name not available
Jul 21, 2018 - 06:35 PM EDT / 2018.07.21 2235 UTC
Wind: from the NE (040 degrees) at 3 MPH (3 KT):0
Visibility: 10 mile(s):0
Sky conditions: clear
Temperature: 84 F (29 C)
Dew Point: 71 F (22 C)
Relative Humidity: 65%
Pressure (altimeter): 29.91 in. Hg (1012 hPa)
ob: KCLW 212235Z AUTO 04003KT 10SM CLR 29/22 A2991 RMK AO2
cycle: 22

Station Type Date Time Source
KCLW TAF UTC NOAA

Error!


Example: see airport list